Yeager Airport
KCRW : now visible

Airfield :











YOU CAN JOIN US ON...

 
LOGIN :

Register | Disclaimer

   EN    FR    IT 

 









Legend :    VFR   Marginal VFR   IFR   Intensive IFR   Very Intensive IFR
Visi :
Ceiling :
>= 8 km
>= 3000ft
5 to 8 km
1000 to 3000 ft
1500m to 5 km
500 to 1000 ft
800 to 1500m
200 to 500 ft
< 800m
< 200 ft
Symbols :   Thunderstorms  Fog  Heavy snow  Heavy precipitations  Wind > 20 kt







- Airport Elevation : 981 ft
- IATA code : CRW


KCRW - Yeager

CURRENT METAR :
  • 210454Z 22003KT 6SM -DZ BR FEW000 BKN008 OVC020 12/12 A2992 RMK AO2 SLP132 FG SCT000 P0002 T01220122 401330006

EXPIRED METARs :
  • 210415Z 24004KT 7SM -DZ BKN008 OVC020 12/12 A2992 RMK AO2 VLY FG P0000 T01170117
  • 210354Z 20003KT 7SM -DZ BKN011 OVC027 12/12 A2992 RMK AO2 SLP133 VLY FG P0000 T01220122
  • 210254Z 24003KT 10SM -DZ OVC025 13/11 A2990 RMK AO2 RAB05E53DZB53 SLP127 P0000 60000 T01280106 53020

TAF KCRW
Valid from the 21 at 03:00 until the 22 at 00:00 UTC


210300Z 2103/2124 VRB03KT P6SM -DZ OVC020
FM210500 23005KT P6SM OVC010
TEMPO 2105/2107 4SM -DZ OVC005
FM211100 29005KT P6SM BKN010
FM211600 27004KT 6SM BR SCT070
KZID FIR / North America



MET'MAP, your aeronautical weather chart ! - Copyright ORBIFLY December 2007 - Disclaimer

ORBIFLY MET'MAP TEAM :

Programming & Development : Alexandra Zaïnal
Concept & Development : Baudouin d'Aumeries
Co-Development & Prog : Marc-Olivier Méhu
Technical & hardware support : Manuel Goepfert

Contact : metmap@orbifly.com




SOURCES & CREDITS :

   NOAA       Earth
Advisory